Terminal Aerodrome Forecast
Issued by NWS

Home | Current Version | Previous Version | Text Only | Print | Product List | Glossary On
Versions: 1 2 3 4 5 6 7 8 9 10 11 12 13 14 15 16 17 18 19 20
000
FTUS45 KABQ 041200 AAA
TAFLVS
TAF AMD
KLVS 041219Z 0412/0512 11009KT 1/4SM FZFG OVC002
      TEMPO 0412/0416 07008KT 1SM BR BKN007
     FM041600 10009KT 2SM BR OVC007
     FM041900 11012KT 2SM -SN BR OVC007
     FM050300 12009KT 3/4SM BR OVC005=

USA.gov is the U.S. government's official web portal to all federal, state and local government web resources and services.